Pagina principale
METAR-TAF:

METAR-TAF

Aeroporti :

Catania, Italia

Aeroporto di Catania-Fontanarossa

latitudine: 37-28N, longitudine: 015-03E, altezza: 11 m

Osservazione

Il bollettino è stato emesso 20 minuti fa, alle 07:50 UTC
Vento 4 kt da ovest/sud-ovest, variando fra sud e nord-ovest
Temperature 23°C
Umidità 44%
Pressione 1017 hPa
Visibilità 10 km o più
nessuna nube inferiore a 1500 m e nessun cumulonembo

METAR: LICC 270750Z 24004KT 190V320 CAVOK 23/10 Q1017

Ora: 10:10 (08:10 UTC)

Previsione

Il bollettino è stato emesso 3 ore e 10 minuti fa, alle 05:00 UTC
Previsione valida dal 27 alle 06 UTC al 28 alle 06 UTC
Vento 5 kt da direzioni variabili
Visibilità 10 km o più
nessuna nube inferiore a 1500 m e nessun cumulonembo
Evoluzione graduale
dal 27 alle 08 UTC al 27 alle 10 UTC
Vento 12 kt da est
Evoluzione graduale
dal 27 alle 18 UTC al 27 alle 20 UTC
Vento 5 kt da direzioni variabili

TAF: LICC 270500Z 2706/2806 VRB05KT CAVOK BECMG 2708/2710 09012KT BECMG 2718/2720 VRB05KT

Osservazioni e previsioni meteorologiche di più di 4000 aeroporti (messaggi METAR e TAF).

Le stazioni disponibili sono rappresentate dai dischi gialli e rossi sulla carta.

Puntare il mouse per vedere il nome della stazione.

Clicca sopra per visualizzare le osservazioni e previsioni meteorologiche.

Per cambiare la mappa : fare clic sui pulsanti verdi con una croce nera per ingrandire, il pulsante verde con un trattino per diminuire, o sulla freccia verde per le mappe adiacenti.


METAR-TAF: